| time (UTC) | temp F | wind direction | speed MPH | gust MPH | rain 1hr in | rain 24hr in | rain mn in | humidity % | barometer mb |
| 20260902191920 | 65 | 327 | 2.0 | 5.0 | 0.00 | 0.00 | 0.00 | 74 | 1010.2 |
| 20260902190934 | 65 | 307 | 1.0 | 4.0 | 0.00 | 0.00 | 0.00 | 75 | 1010.3 |
| 20260902184957 | 64 | 340 | 1.0 | 5.0 | 0.00 | 0.00 | 0.00 | 75 | 1010.3 |
| 20260902182936 | 65 | 348 | 0.0 | 1.0 | 0.00 | 0.00 | 0.00 | 76 | 1010.8 |
| 20260902181938 | 65 | 348 | 0.0 | 0.0 | 0.00 | 0.00 | 0.00 | 74 | 1010.7 |
| 20260902180930 | 65 | 2 | 0.0 | 2.0 | 0.00 | 0.00 | 0.00 | 73 | 1010.9 |
| 20260902175947 | 66 | 332 | 0.0 | 0.0 | 0.00 | 0.00 | 0.00 | 72 | 1011.0 |
| 20260902172753 | 67 | 5 | 1.0 | 7.0 | 0.00 | 0.00 | 0.00 | 70 | 1011.2 |
| 20260902171739 | 67 | 327 | 2.0 | 10.0 | 0.00 | 0.00 | 0.00 | 70 | 1011.4 |
| 20260902170747 | 67 | 335 | 3.0 | 10.0 | 0.00 | 0.00 | 0.00 | 70 | 1011.5 |
| 20260902164552 | 67 | 304 | 3.0 | 10.0 | 0.00 | 0.00 | 0.00 | 69 | 1011.6 |
| 20260902162452 | 67 | 303 | 2.0 | 8.0 | 0.00 | 0.00 | 0.00 | 69 | 1011.8 |
| 20260902161430 | 66 | 311 | 3.0 | 9.0 | 0.00 | 0.00 | 0.00 | 69 | 1011.8 |
| 20260902155229 | 65 | 323 | 2.0 | 6.0 | 0.00 | 0.00 | 0.00 | 69 | 1012.5 |
| 20260902154159 | 65 | 326 | 1.0 | 4.0 | 0.00 | 0.00 | 0.00 | 69 | 1012.7 |
| 20260902153129 | 65 | 321 | 1.0 | 4.0 | 0.00 | 0.00 | 0.00 | 69 | 1013.1 |
| 20260902151112 | 65 | 323 | 0.0 | 2.0 | 0.00 | 0.00 | 0.00 | 69 | 1013.3 |
| 20260902150120 | 65 | 322 | 1.0 | 3.0 | 0.00 | 0.00 | 0.00 | 68 | 1013.2 |
| 20260902144043 | 65 | 271 | 0.0 | 3.0 | 0.00 | 0.00 | 0.00 | 68 | 1013.2 |
| 20260902143031 | 65 | 313 | 0.0 | 3.0 | 0.00 | 0.00 | 0.00 | 68 | 1013.3 |
| 20260902140919 | 65 | 330 | 0.0 | 3.0 | 0.00 | 0.00 | 0.00 | 68 | 1013.3 |
| 20260902135918 | 65 | 330 | 1.0 | 4.0 | 0.00 | 0.00 | 0.00 | 68 | 1013.5 |
| 20260902134920 | 65 | 316 | 0.0 | 4.0 | 0.00 | 0.00 | 0.00 | 68 | 1013.5 |
| 20260902132719 | 65 | 326 | 0.0 | 3.0 | 0.00 | 0.00 | 0.00 | 67 | 1013.5 |
| 20260902131645 | 65 | 316 | 1.0 | 3.0 | 0.00 | 0.00 | 0.00 | 66 | 1013.5 |
| 20260902130657 | 65 | 282 | 1.0 | 3.0 | 0.00 | 0.00 | 0.00 | 66 | 1013.5 |
| 20260902125644 | 66 | 316 | 0.0 | 1.0 | 0.00 | 0.00 | 0.00 | 66 | 1013.6 |
| 20260902124609 | 66 | 329 | 0.0 | 2.0 | 0.00 | 0.00 | 0.00 | 66 | 1013.6 |
| 20260902122516 | 66 | 323 | 0.0 | 1.0 | 0.00 | 0.00 | 0.00 | 65 | 1013.8 |
| 20260902120344 | 67 | 332 | 0.0 | 1.0 | 0.00 | 0.00 | 0.00 | 65 | 1014.2 |
| 20260902115316 | 67 | 333 | 0.0 | 0.0 | 0.00 | 0.00 | 0.00 | 65 | 1014.2 |
| 20260902114252 | 67 | 333 | 0.0 | 0.0 | 0.00 | 0.00 | 0.00 | 65 | 1014.2 |
| 20260902113313 | 67 | 333 | 0.0 | 2.0 | 0.00 | 0.00 | 0.00 | 65 | 1014.1 |
| 20260902112327 | 68 | 314 | 0.0 | 2.0 | 0.00 | 0.00 | 0.00 | 65 | 1014.2 |
| 20260902111328 | 68 | 327 | 0.0 | 0.0 | 0.00 | 0.00 | 0.00 | 65 | 1014.1 |
| 20260902110301 | 68 | 327 | 0.0 | 1.0 | 0.00 | 0.00 | 0.00 | 65 | 1014.2 |
| 20260902104132 | 69 | 336 | 0.0 | 1.0 | 0.00 | 0.00 | 0.00 | 65 | 1014.2 |
| 20260902103151 | 69 | 336 | 0.0 | 2.0 | 0.00 | 0.00 | 0.00 | 64 | 1014.2 |
| 20260902102214 | 69 | 325 | 0.0 | 2.0 | 0.00 | 0.00 | 0.00 | 65 | 1014.1 |
| 20260902101210 | 70 | 295 | 0.0 | 0.0 | 0.00 | 0.00 | 0.00 | 64 | 1013.9 |
| 20260902100204 | 70 | 295 | 0.0 | 0.0 | 0.00 | 0.00 | 0.00 | 63 | 1013.7 |
| 20260902095155 | 71 | 296 | 0.0 | 0.0 | 0.00 | 0.00 | 0.00 | 63 | 1013.7 |
| 20260902094145 | 71 | 300 | 0.0 | 2.0 | 0.00 | 0.00 | 0.00 | 63 | 1013.6 |
| 20260902093158 | 72 | 310 | 0.0 | 1.0 | 0.00 | 0.00 | 0.00 | 62 | 1013.5 |
| 20260902092133 | 72 | 297 | 0.0 | 2.0 | 0.00 | 0.00 | 0.00 | 62 | 1013.4 |
| 20260902090053 | 72 | 310 | 0.0 | 3.0 | 0.00 | 0.00 | 0.00 | 61 | 1013.2 |
| 20260902085108 | 73 | 293 | 0.0 | 2.0 | 0.00 | 0.00 | 0.00 | 61 | 1013.2 |
| 20260902082958 | 74 | 328 | 0.0 | 3.0 | 0.00 | 0.00 | 0.00 | 58 | 1012.9 |
| 20260902080840 | 76 | 333 | 0.0 | 4.0 | 0.00 | 0.00 | 0.00 | 56 | 1012.8 |
| 20260902075829 | 76 | 315 | 1.0 | 5.0 | 0.00 | 0.00 | 0.00 | 54 | 1012.7 |
| 20260902074848 | 77 | 327 | 2.0 | 6.0 | 0.00 | 0.00 | 0.00 | 54 | 1012.6 |
| 20260902073906 | 78 | 330 | 2.0 | 9.0 | 0.00 | 0.00 | 0.00 | 52 | 1012.5 |
| 20260902072855 | 78 | 314 | 3.0 | 11.0 | 0.00 | 0.00 | 0.00 | 52 | 1012.3 |
| 20260902071823 | 79 | 356 | 4.0 | 11.0 | 0.00 | 0.00 | 0.00 | 51 | 1012.4 |
| 20260902063512 | 81 | 345 | 5.0 | 13.0 | 0.00 | 0.00 | 0.00 | 48 | 1012.1 |
| 20260902062527 | 81 | 343 | 4.0 | 13.0 | 0.00 | 0.00 | 0.00 | 47 | 1012.2 |
| 20260902060411 | 81 | 335 | 4.0 | 11.0 | 0.00 | 0.00 | 0.00 | 47 | 1012.0 |
| 20260902055404 | 81 | 309 | 3.0 | 12.0 | 0.00 | 0.00 | 0.00 | 47 | 1012.1 |
| 20260902054410 | 82 | 200 | 5.0 | 17.0 | 0.00 | 0.00 | 0.00 | 47 | 1012.2 |
| 20260902052259 | 82 | 314 | 6.0 | 16.0 | 0.00 | 0.00 | 0.00 | 46 | 1012.2 |
| 20260902051232 | 82 | 300 | 6.0 | 14.0 | 0.00 | 0.00 | 0.00 | 46 | 1012.2 |
| 20260902050218 | 82 | 301 | 5.0 | 15.0 | 0.00 | 0.00 | 0.00 | 47 | 1012.3 |
| 20260902044010 | 81 | 318 | 6.0 | 17.0 | 0.00 | 0.00 | 0.00 | 47 | 1012.4 |
| 20260902043027 | 81 | 266 | 6.0 | 17.0 | 0.00 | 0.00 | 0.00 | 47 | 1012.5 |
| 20260902042013 | 81 | 322 | 7.0 | 16.0 | 0.00 | 0.00 | 0.00 | 48 | 1012.6 |
| 20260902040945 | 81 | 333 | 7.0 | 16.0 | 0.00 | 0.00 | 0.00 | 47 | 1012.6 |
| 20260902035922 | 82 | 320 | 6.0 | 19.0 | 0.00 | 0.00 | 0.00 | 47 | 1012.7 |
| 20260902034933 | 81 | 207 | 7.0 | 19.0 | 0.00 | 0.00 | 0.00 | 46 | 1012.8 |
| 20260902033928 | 82 | 238 | 6.0 | 13.0 | 0.00 | 0.00 | 0.00 | 46 | 1012.9 |
| 20260902032923 | 82 | 323 | 5.0 | 15.0 | 0.00 | 0.00 | 0.00 | 46 | 1013.0 |
| 20260902031913 | 81 | 326 | 7.0 | 17.0 | 0.00 | 0.00 | 0.00 | 46 | 1013.2 |
| 20260902025909 | 81 | 238 | 7.0 | 17.0 | 0.00 | 0.00 | 0.00 | 47 | 1013.7 |
| 20260902024846 | 80 | 309 | 7.0 | 18.0 | 0.00 | 0.00 | 0.00 | 47 | 1013.9 |
| 20260902023845 | 80 | 12 | 6.0 | 17.0 | 0.00 | 0.00 | 0.00 | 48 | 1014.0 |
| 20260902021659 | 78 | 160 | 7.0 | 18.0 | 0.00 | 0.00 | 0.00 | 49 | 1014.6 |
| 20260902020650 | 78 | 290 | 5.0 | 15.0 | 0.00 | 0.00 | 0.00 | 50 | 1014.9 |
| 20260902015646 | 77 | 317 | 5.0 | 14.0 | 0.00 | 0.00 | 0.00 | 50 | 1015.1 |
| 20260902014636 | 77 | 1 | 5.0 | 14.0 | 0.00 | 0.00 | 0.00 | 50 | 1015.4 |
| 20260902012608 | 76 | 262 | 5.0 | 12.0 | 0.00 | 0.00 | 0.00 | 55 | 1015.8 |
| 20260902010441 | 75 | 317 | 5.0 | 13.0 | 0.00 | 0.00 | 0.00 | 56 | 1016.4 |
| 20260902005430 | 73 | 290 | 4.0 | 13.0 | 0.00 | 0.00 | 0.00 | 57 | 1016.4 |
| 20260902004441 | 72 | 328 | 5.0 | 13.0 | 0.00 | 0.00 | 0.00 | 58 | 1016.5 |
| 20260902002438 | 71 | 296 | 5.0 | 14.0 | 0.00 | 0.00 | 0.00 | 59 | 1016.8 |
| 20260902001414 | 71 | 297 | 4.0 | 14.0 | 0.00 | 0.00 | 0.00 | 59 | 1016.9 |
| 20260901235230 | 69 | 302 | 4.0 | 9.0 | 0.00 | 0.00 | 0.00 | 62 | 1017.2 |
| 20260901234240 | 69 | 274 | 4.0 | 12.0 | 0.00 | 0.00 | 0.00 | 63 | 1017.3 |
| 20260901233232 | 68 | 310 | 3.0 | 12.0 | 0.00 | 0.00 | 0.00 | 64 | 1017.6 |
| 20260901232228 | 68 | 325 | 4.0 | 7.0 | 0.00 | 0.00 | 0.00 | 65 | 1017.7 |
| 20260901231156 | 68 | 321 | 3.0 | 9.0 | 0.00 | 0.00 | 0.00 | 66 | 1017.8 |
| 20260901230216 | 68 | 324 | 3.0 | 11.0 | 0.00 | 0.00 | 0.00 | 66 | 1017.9 |
| 20260901223125 | 71 | 269 | 2.0 | 10.0 | 0.00 | 0.00 | 0.00 | 64 | 1018.2 |
| 20260901222132 | 70 | 8 | 2.0 | 8.0 | 0.00 | 0.00 | 0.00 | 63 | 1017.9 |
| 20260901221103 | 68 | 314 | 3.0 | 8.0 | 0.00 | 0.00 | 0.00 | 64 | 1018.1 |
| 20260901220040 | 66 | 319 | 2.0 | 8.0 | 0.00 | 0.00 | 0.00 | 69 | 1017.8 |
| 20260901215032 | 64 | 344 | 2.0 | 6.0 | 0.00 | 0.00 | 0.00 | 73 | 1017.9 |
| 20260901214043 | 63 | 314 | 2.0 | 9.0 | 0.00 | 0.00 | 0.00 | 74 | 1017.9 |
| 20260901213031 | 63 | 358 | 3.0 | 9.0 | 0.00 | 0.00 | 0.00 | 74 | 1017.5 |
| 20260901212031 | 62 | 326 | 2.0 | 7.0 | 0.00 | 0.00 | 0.00 | 75 | 1017.5 |
| 20260901211038 | 62 | 340 | 2.0 | 5.0 | 0.00 | 0.00 | 0.00 | 76 | 1017.6 |
| 20260901210050 | 61 | 300 | 1.0 | 4.0 | 0.00 | 0.00 | 0.00 | 78 | 1017.6 |
| 20260901205059 | 60 | 330 | 0.0 | 3.0 | 0.00 | 0.00 | 0.00 | 81 | 1017.5 |
| 20260901204045 | 59 | 326 | 0.0 | 1.0 | 0.00 | 0.00 | 0.00 | 80 | 1017.5 |
| 20260901201936 | 58 | 314 | 1.0 | 5.0 | 0.00 | 0.00 | 0.00 | 80 | 1017.2 |
| 20260901201001 | 58 | 309 | 1.0 | 4.0 | 0.00 | 0.00 | 0.00 | 80 | 1017.2 |
| 20260901200011 | 58 | 322 | 1.0 | 6.0 | 0.00 | 0.00 | 0.00 | 80 | 1017.1 |
| 20260901195026 | 58 | 316 | 2.0 | 6.0 | 0.00 | 0.00 | 0.00 | 80 | 1016.8 |
| 20260901194000 | 59 | 319 | 2.0 | 4.0 | 0.00 | 0.00 | 0.00 | 80 | 1016.8 |
| 20260901193021 | 59 | 315 | 1.0 | 4.0 | 0.00 | 0.00 | 0.00 | 80 | 1016.6 |